Time;durP1;ratioP1;P1;durP2;ratioP2;P2;SDS_P1;SDS_P2;PMS_P1;PMS_P2;Temp;Humidity;BMP_temperature;BMP_pressure;BME280_temperature;BME280_humidity;BME280_pressure;Samples;Min_cycle;Max_cycle;Signal;HPM_P1;HPM_P2
2021/05/02 00:00:29;;;;;;;18.43;15.57;;;;;;;5.92;100.00;95206.81;1052387;28;20016;-70
2021/05/02 00:00:59;;;;;;;17.08;14.50;;;;;;;5.95;100.00;95201.00;1052502;28;20103;-69
2021/05/02 00:01:29;;;;;;;19.10;15.03;;;;;;;5.94;100.00;95210.03;1052427;28;20020;-69
2021/05/02 00:02:00;;;;;;;19.63;15.33;;;;;;;5.96;100.00;95207.09;1052386;28;20074;-69
2021/05/02 00:02:30;;;;;;;17.77;15.50;;;;;;;5.97;100.00;95203.38;1052392;28;20484;-69
2021/05/02 00:03:02;;;;;;;19.70;15.47;;;;;;;5.97;100.00;95198.88;1052492;28;20027;-69
2021/05/02 00:03:33;;;;;;;18.05;15.55;;;;;;;5.97;100.00;95203.38;1052439;28;20065;-69
2021/05/02 00:04:04;;;;;;;17.55;14.75;;;;;;;5.95;100.00;95206.31;1043985;28;20163;-69
2021/05/02 00:04:34;;;;;;;18.25;13.77;;;;;;;5.93;100.00;95207.59;1044020;28;20024;-69
2021/05/02 00:05:05;;;;;;;15.73;14.07;;;;;;;5.90;100.00;95206.25;1044102;28;20524;-69
2021/05/02 00:05:36;;;;;;;19.52;15.32;;;;;;;5.91;100.00;95207.06;1044481;28;20113;-70
2021/05/02 00:06:07;;;;;;;20.27;15.47;;;;;;;5.91;100.00;95205.22;1044000;28;20029;-71
2021/05/02 00:06:38;;;;;;;17.73;15.63;;;;;;;5.91;100.00;95205.22;1046577;28;20025;-71
2021/05/02 00:07:09;;;;;;;17.77;14.70;;;;;;;5.90;100.00;95205.47;1044378;28;20459;-71
2021/05/02 00:07:39;;;;;;;19.33;16.03;;;;;;;5.92;100.00;95206.03;1044237;28;20056;-70
2021/05/02 00:08:10;;;;;;;19.30;15.33;;;;;;;5.94;100.00;95202.06;1048168;28;20461;-70
2021/05/02 00:08:40;;;;;;;18.70;16.00;;;;;;;5.94;100.00;95209.22;1048275;28;20193;-69
2021/05/02 00:09:10;;;;;;;19.13;15.63;;;;;;;5.92;100.00;95208.69;1048310;28;20107;-70
2021/05/02 00:09:41;;;;;;;20.57;16.13;;;;;;;5.90;100.00;95208.13;1052396;28;20031;-70
2021/05/02 00:10:12;;;;;;;18.83;15.73;;;;;;;5.92;100.00;95208.69;1044068;28;20032;-69
2021/05/02 00:10:42;;;;;;;18.63;15.00;;;;;;;5.93;100.00;95208.41;1043012;28;20029;-71
2021/05/02 00:11:13;;;;;;;18.57;15.60;;;;;;;5.90;100.00;95202.81;1039924;28;20063;-72
2021/05/02 00:11:43;;;;;;;16.83;14.63;;;;;;;5.91;100.00;95210.53;1040150;28;20047;-71
2021/05/02 00:12:13;;;;;;;19.20;14.87;;;;;;;5.93;100.00;95205.75;1048022;28;20027;-71
2021/05/02 00:12:44;;;;;;;19.93;14.43;;;;;;;5.95;100.00;95208.16;1051503;28;20042;-71
2021/05/02 00:13:15;;;;;;;17.40;15.00;;;;;;;5.92;100.00;95206.81;1052719;28;20381;-73
2021/05/02 00:13:45;;;;;;;19.47;14.80;;;;;;;5.91;100.00;95210.53;1052752;28;20032;-71
2021/05/02 00:14:16;;;;;;;16.53;13.83;;;;;;;5.88;100.00;95205.69;1052596;28;20031;-71
2021/05/02 00:14:46;;;;;;;16.67;13.27;;;;;;;5.92;100.00;95217.41;1052745;28;20051;-71
2021/05/02 00:15:18;;;;;;;16.73;13.47;;;;;;;5.91;100.00;95220.31;1053221;28;20376;-71
2021/05/02 00:15:49;;;;;;;15.98;13.73;;;;;;;5.89;100.00;95207.31;1050400;28;20490;-71
2021/05/02 00:16:19;;;;;;;18.07;15.30;;;;;;;5.91;100.00;95225.63;1045807;28;20042;-71
2021/05/02 00:16:50;;;;;;;16.20;14.00;;;;;;;5.94;100.00;95204.72;1040370;28;20024;-70
2021/05/02 00:17:21;;;;;;;18.13;13.45;;;;;;;5.91;100.00;95215.84;1036263;28;20025;-70
2021/05/02 00:17:52;;;;;;;17.45;14.43;;;;;;;5.91;100.00;95220.31;1035816;28;20088;-71
2021/05/02 00:18:24;;;;;;;16.27;13.87;;;;;;;5.91;100.00;95220.31;1032106;28;20539;-69
2021/05/02 00:18:54;;;;;;;16.05;13.52;;;;;;;5.89;100.00;95214.47;1032605;28;20265;-70
2021/05/02 00:19:25;;;;;;;19.17;13.37;;;;;;;5.89;100.00;95217.13;1040127;28;20030;-71
2021/05/02 00:19:56;;;;;;;15.93;14.23;;;;;;;5.89;100.00;95222.44;1040103;28;20156;-71
2021/05/02 00:20:27;;;;;;;18.63;14.18;;;;;;;5.87;100.00;95220.03;1040147;28;20097;-71
2021/05/02 00:20:57;;;;;;;15.10;12.90;;;;;;;5.87;100.00;95221.88;1044114;28;20104;-71
2021/05/02 00:21:27;;;;;;;13.83;12.33;;;;;;;5.89;100.00;95222.44;1044333;28;20033;-72
2021/05/02 00:21:58;;;;;;;16.17;11.53;;;;;;;5.87;100.00;95217.38;1048299;28;20024;-72
2021/05/02 00:22:28;;;;;;;13.70;12.23;;;;;;;5.84;100.00;95220.56;1048096;28;20021;-71
2021/05/02 00:23:01;;;;;;;12.27;10.97;;;;;;;5.84;100.00;95217.13;1048282;28;20032;-71
2021/05/02 00:23:34;;;;;;;13.98;11.13;;;;;;;5.81;100.00;95217.63;1049789;28;20058;-72
2021/05/02 00:24:04;;;;;;;18.33;12.57;;;;;;;5.84;100.00;95219.75;1052498;28;20532;-72
2021/05/02 00:24:35;;;;;;;14.10;11.93;;;;;;;5.83;100.00;95218.94;1052372;28;20016;-71
2021/05/02 00:25:06;;;;;;;14.03;11.67;;;;;;;5.84;100.00;95214.47;1052753;28;20028;-71
2021/05/02 00:25:36;;;;;;;13.18;11.27;;;;;;;5.83;100.00;95218.94;1052693;28;20485;-71
2021/05/02 00:26:08;;;;;;;12.93;10.77;;;;;;;5.81;100.00;95220.28;1052430;28;20027;-72
2021/05/02 00:26:38;;;;;;;13.75;11.65;;;;;;;5.84;100.00;95219.75;1052343;28;20020;-71
2021/05/02 00:27:08;;;;;;;15.23;12.40;;;;;;;5.81;100.00;95212.31;1048208;28;20035;-71
2021/05/02 00:27:39;;;;;;;14.47;12.30;;;;;;;5.81;100.00;95220.28;1044226;28;20587;-71
2021/05/02 00:28:09;;;;;;;14.63;12.50;;;;;;;5.82;100.00;95222.66;1044027;28;20033;-71
2021/05/02 00:28:51;;;;;;;17.27;13.20;;;;;;;5.82;100.00;95230.59;1040057;28;20033;-71
2021/05/02 00:29:21;;;;;;;19.77;12.50;;;;;;;5.81;100.00;95220.28;1041360;28;20022;-72
2021/05/02 00:29:51;;;;;;;15.03;13.40;;;;;;;5.84;100.00;95227.72;1041535;28;20343;-72
2021/05/02 00:30:23;;;;;;;15.70;12.90;;;;;;;5.86;100.00;95218.44;1037489;28;20463;-71
2021/05/02 00:30:53;;;;;;;18.30;13.18;;;;;;;5.87;100.00;95224.53;1035432;28;20483;-71
2021/05/02 00:31:24;;;;;;;13.23;10.27;;;;;;;5.84;100.00;95220.56;1035884;28;20050;-71
2021/05/02 00:31:54;;;;;;;10.93;9.30;;;;;;;5.81;100.00;95222.91;1040082;28;20033;-71
2021/05/02 00:32:25;;;;;;;10.80;9.67;;;;;;;5.82;100.00;95222.66;1036091;28;20026;-71
2021/05/02 00:32:55;;;;;;;11.13;9.70;;;;;;;5.79;100.00;95223.19;1031819;28;20071;-70
2021/05/02 00:33:26;;;;;;;13.60;11.23;;;;;;;5.78;100.00;95226.06;1032179;28;20023;-70
2021/05/02 00:33:56;;;;;;;12.43;10.70;;;;;;;5.77;100.00;95229.78;1036108;28;20033;-70
2021/05/02 00:34:27;;;;;;;15.00;11.17;;;;;;;5.77;100.00;95229.78;1040061;28;20079;-71
2021/05/02 00:34:58;;;;;;;13.60;11.32;;;;;;;5.75;100.00;95232.72;1039935;28;20128;-71
2021/05/02 00:35:28;;;;;;;15.87;12.13;;;;;;;5.77;100.00;95230.59;1040075;28;20402;-70
2021/05/02 00:35:59;;;;;;;13.80;11.57;;;;;;;5.76;100.00;95231.66;1040201;28;20514;-71
2021/05/02 00:36:29;;;;;;;16.45;12.70;;;;;;;5.77;100.00;95227.94;1048176;28;20052;-71
2021/05/02 00:37:00;;;;;;;17.47;12.40;;;;;;;5.78;100.00;95228.72;1040023;28;20045;-70
2021/05/02 00:37:31;;;;;;;11.60;10.20;;;;;;;5.78;100.00;95229.53;1039917;28;20024;-70
2021/05/02 00:38:01;;;;;;;14.43;10.87;;;;;;;5.77;100.00;95224.47;1040058;28;20356;-70
2021/05/02 00:38:36;;;;;;;16.13;11.47;;;;;;;5.78;100.00;95223.41;1044163;28;20025;-71
2021/05/02 00:39:06;;;;;;;15.05;12.25;;;;;;;5.80;100.00;95234.59;1048195;28;20024;-70
2021/05/02 00:39:37;;;;;;;13.33;10.57;;;;;;;5.78;100.00;95229.53;1048196;28;20474;-71
2021/05/02 00:40:12;;;;;;;14.17;11.47;;;;;;;5.80;100.00;95237.25;1048194;28;20020;-70
2021/05/02 00:40:43;;;;;;;14.98;11.93;;;;;;;5.82;100.00;95237.75;1048227;28;20028;-71
2021/05/02 00:41:19;;;;;;;17.17;12.53;;;;;;;5.85;100.00;95232.75;1040657;28;20394;-70
2021/05/02 00:41:49;;;;;;;13.00;11.18;;;;;;;5.86;100.00;95239.66;1038032;28;20022;-70
2021/05/02 00:42:24;;;;;;;11.67;10.20;;;;;;;5.79;100.00;95230.34;1035754;28;20073;-70
2021/05/02 00:42:54;;;;;;;11.23;9.35;;;;;;;5.73;100.00;95235.63;1038731;28;20650;-70
2021/05/02 00:43:32;;;;;;;10.57;9.03;;;;;;;5.71;100.00;95240.38;1041168;28;20029;-70
2021/05/02 00:44:08;;;;;;;12.38;10.00;;;;;;;5.69;100.00;95237.19;1037446;28;20010;-70
2021/05/02 00:44:51;;;;;;;11.98;10.40;;;;;;;5.64;100.00;95239.81;1035824;28;20033;-70
2021/05/02 00:45:38;;;;;;;10.57;9.32;;;;;;;5.63;100.00;95237.41;1042957;28;20025;-70
2021/05/02 00:46:11;;;;;;;11.57;9.18;;;;;;;5.62;100.00;95249.06;1052349;28;20038;-70
2021/05/02 00:46:49;;;;;;;18.23;9.63;;;;;;;5.63;100.00;95242.69;1052554;28;20043;-70
2021/05/02 00:47:40;;;;;;;13.45;10.50;;;;;;;5.65;100.00;95245.91;1048208;28;20051;-70
2021/05/02 00:48:17;;;;;;;12.93;10.00;;;;;;;5.63;100.00;95242.69;1039870;28;20022;-70
2021/05/02 00:49:02;;;;;;;12.77;9.68;;;;;;;5.60;100.00;95244.03;1039856;28;20034;-70
2021/05/02 00:49:38;;;;;;;11.25;9.10;;;;;;;5.60;100.00;95254.63;1043778;28;20459;-70
2021/05/02 00:50:10;;;;;;;11.48;9.02;;;;;;;5.59;100.00;95250.38;1043397;28;20017;-70
2021/05/02 00:50:52;;;;;;;15.60;9.35;;;;;;;5.57;100.00;95244.53;1039834;28;20041;-70
2021/05/02 00:51:22;;;;;;;12.35;9.30;;;;;;;5.61;100.00;95240.31;1038329;28;20494;-70
2021/05/02 00:51:58;;;;;;;12.13;9.57;;;;;;;5.58;100.00;95243.50;1041767;28;20021;-70
2021/05/02 00:52:46;;;;;;;12.23;8.93;;;;;;;5.58;100.00;95246.16;1042858;28;20741;-71
2021/05/02 00:53:21;;;;;;;13.15;9.32;;;;;;;5.58;100.00;95248.78;1045051;28;20493;-71
2021/05/02 00:53:54;;;;;;;14.82;10.45;;;;;;;5.59;100.00;95239.78;1045397;28;20470;-71
2021/05/02 00:54:43;;;;;;;10.80;8.98;;;;;;;5.59;100.00;95246.94;1049413;28;20540;-71
2021/05/02 00:55:16;;;;;;;12.90;10.05;;;;;;;5.61;100.00;95247.47;1048926;28;20100;-71
2021/05/02 00:55:49;;;;;;;14.25;10.30;;;;;;;5.64;100.00;95246.97;1049540;28;20529;-71
2021/05/02 00:56:24;;;;;;;12.73;10.57;;;;;;;5.65;100.00;95246.69;1049445;28;20056;-71
2021/05/02 00:56:57;;;;;;;13.48;10.45;;;;;;;5.66;100.00;95252.81;1049592;28;20122;-71
2021/05/02 00:57:29;;;;;;;13.82;10.90;;;;;;;5.65;100.00;95241.41;1049930;28;20434;-72
2021/05/02 00:58:00;;;;;;;14.63;10.32;;;;;;;5.66;100.00;95247.50;1049562;28;20028;-71
2021/05/02 00:58:35;;;;;;;11.95;9.82;;;;;;;5.65;100.00;95245.91;1049506;28;20033;-71
2021/05/02 00:59:19;;;;;;;10.65;8.73;;;;;;;5.60;100.00;95251.19;1045328;28;20474;-71
2021/05/02 01:00:10;;;;;;;12.02;9.18;;;;;;;5.63;100.00;95246.16;1048100;28;20640;-72
2021/05/02 01:00:41;;;;;;;10.32;8.48;;;;;;;5.58;100.00;95248.78;1055783;28;20059;-70
2021/05/02 01:01:17;;;;;;;14.73;9.03;;;;;;;5.60;100.00;95259.94;1051123;28;20083;-71
2021/05/02 01:01:50;;;;;;;11.45;8.90;;;;;;;5.60;100.00;95251.19;1051313;28;20031;-71
2021/05/02 01:02:21;;;;;;;11.02;8.70;;;;;;;5.60;100.00;95251.97;1049551;28;20497;-71
2021/05/02 01:02:59;;;;;;;10.97;9.13;;;;;;;5.60;100.00;95254.63;1050935;28;20036;-71
2021/05/02 01:03:32;;;;;;;11.82;8.80;;;;;;;5.58;100.00;95251.44;1049729;28;20020;-72
2021/05/02 01:04:03;;;;;;;11.50;9.13;;;;;;;5.56;100.00;95258.84;1049517;28;20024;-72
2021/05/02 01:04:34;;;;;;;10.73;8.90;;;;;;;5.56;100.00;95263.34;1045182;28;20025;-72
2021/05/02 01:05:06;;;;;;;10.50;8.70;;;;;;;5.53;100.00;95261.19;1046680;28;20029;-71
2021/05/02 01:05:36;;;;;;;12.82;9.88;;;;;;;5.53;100.00;95262.00;1053713;28;20660;-72
2021/05/02 01:06:08;;;;;;;12.10;8.90;;;;;;;5.54;100.00;95263.59;1045594;28;20036;-71
2021/05/02 01:06:40;;;;;;;10.77;9.02;;;;;;;5.55;100.00;95264.41;1045261;28;20095;-71
2021/05/02 01:07:17;;;;;;;10.18;8.95;;;;;;;5.52;100.00;95255.09;1045348;28;20021;-72
2021/05/02 01:07:48;;;;;;;10.73;8.82;;;;;;;5.55;100.00;95259.09;1048221;28;20524;-71
2021/05/02 01:08:18;;;;;;;9.80;7.77;;;;;;;5.50;100.00;95259.88;1050635;28;20035;-71
2021/05/02 01:08:53;;;;;;;10.00;8.10;;;;;;;5.53;100.00;95272.63;1053690;28;20028;-71
2021/05/02 01:09:23;;;;;;;11.57;8.38;;;;;;;5.51;100.00;95263.31;1053719;28;20027;-71
2021/05/02 01:09:54;;;;;;;11.03;7.93;;;;;;;5.49;100.00;95266.22;1053740;28;20050;-71
2021/05/02 01:10:25;;;;;;;9.85;8.35;;;;;;;5.51;100.00;95273.91;1045990;28;20109;-70
2021/05/02 01:10:57;;;;;;;9.10;7.60;;;;;;;5.50;100.00;95270.47;1041016;28;20101;-70
2021/05/02 01:11:28;;;;;;;13.27;8.75;;;;;;;5.53;100.00;95272.63;1041078;28;20026;-71
2021/05/02 01:11:59;;;;;;;9.30;7.90;;;;;;;5.53;100.00;95277.09;1042256;28;20033;-70
2021/05/02 01:12:30;;;;;;;9.13;7.20;;;;;;;5.50;100.00;95273.13;1050070;28;20116;-70
2021/05/02 01:13:01;;;;;;;9.40;7.33;;;;;;;5.49;100.00;95276.81;1049453;28;20052;-70
2021/05/02 01:13:35;;;;;;;9.95;7.75;;;;;;;5.51;100.00;95277.34;1049558;28;20126;-71
2021/05/02 01:14:06;;;;;;;9.13;7.50;;;;;;;5.51;100.00;95280.00;1045309;28;20025;-70
2021/05/02 01:14:36;;;;;;;9.73;7.53;;;;;;;5.51;100.00;95274.72;1050213;28;20123;-70
2021/05/02 01:15:07;;;;;;;9.40;7.60;;;;;;;5.54;100.00;95274.22;1049489;28;20032;-70
2021/05/02 01:15:37;;;;;;;12.65;8.45;;;;;;;5.52;100.00;95276.28;1037218;28;20102;-71
2021/05/02 01:16:08;;;;;;;10.47;7.37;;;;;;;5.53;100.00;95283.22;1041165;28;20026;-70
2021/05/02 01:16:39;;;;;;;8.87;7.20;;;;;;;5.51;100.00;95285.31;1037251;28;20018;-70
2021/05/02 01:17:11;;;;;;;8.20;7.00;;;;;;;5.48;100.00;95278.69;1041386;28;20029;-70
2021/05/02 01:17:43;;;;;;;8.15;6.60;;;;;;;5.45;100.00;95281.03;1045866;28;20499;-70
2021/05/02 01:18:13;;;;;;;8.27;6.53;;;;;;;5.46;100.00;95279.97;1050102;28;20440;-70
2021/05/02 01:18:44;;;;;;;7.77;6.37;;;;;;;5.47;100.00;95281.56;1049352;28;20039;-70
2021/05/02 01:19:14;;;;;;;8.23;6.57;;;;;;;5.46;100.00;95287.91;1045247;28;20247;-71
2021/05/02 01:19:47;;;;;;;8.53;6.40;;;;;;;5.47;100.00;95279.72;1046831;28;20041;-72
2021/05/02 01:20:17;;;;;;;7.35;5.82;;;;;;;5.48;100.00;95280.53;1048024;28;20013;-71
2021/05/02 01:20:47;;;;;;;8.10;6.23;;;;;;;5.46;100.00;95278.13;1047655;28;20045;-71
2021/05/02 01:21:18;;;;;;;7.67;6.43;;;;;;;5.46;100.00;95285.28;1049502;28;20012;-70
2021/05/02 01:21:49;;;;;;;8.10;6.63;;;;;;;5.43;100.00;95281.28;1049573;28;20070;-71
2021/05/02 01:22:20;;;;;;;9.48;6.60;;;;;;;5.44;100.00;95285.53;1049653;28;20096;-72
2021/05/02 01:22:51;;;;;;;8.30;7.25;;;;;;;5.43;100.00;95285.81;1049906;28;20377;-71
2021/05/02 01:23:25;;;;;;;8.87;7.30;;;;;;;5.44;100.00;95279.44;1049431;28;20017;-72
2021/05/02 01:23:57;;;;;;;8.27;7.22;;;;;;;5.46;100.00;95283.41;1045346;28;20435;-72
2021/05/02 01:24:28;;;;;;;9.60;7.47;;;;;;;5.45;100.00;95279.19;1046085;28;20017;-72
2021/05/02 01:24:58;;;;;;;10.23;8.20;;;;;;;5.48;100.00;95285.84;1046153;28;20025;-71
2021/05/02 01:25:29;;;;;;;9.30;7.90;;;;;;;5.47;100.00;95284.22;1041396;28;20506;-71
2021/05/02 01:26:00;;;;;;;10.50;7.50;;;;;;;5.47;100.00;95286.88;1045384;28;20450;-71
2021/05/02 01:26:30;;;;;;;9.32;7.60;;;;;;;5.46;100.00;95285.28;1041068;28;20075;-72
2021/05/02 01:27:01;;;;;;;9.13;7.70;;;;;;;5.51;100.00;95287.16;1045768;28;20078;-71
2021/05/02 01:27:31;;;;;;;10.23;7.50;;;;;;;5.53;100.00;95279.75;1053579;28;20020;-72
2021/05/02 01:28:02;;;;;;;9.43;8.00;;;;;;;5.51;100.00;95287.97;1053641;28;20103;-72
2021/05/02 01:28:34;;;;;;;9.38;7.28;;;;;;;5.52;100.00;95284.25;1053087;28;20085;-72
2021/05/02 01:29:05;;;;;;;10.52;8.02;;;;;;;5.51;100.00;95280.00;1053715;28;20023;-71
2021/05/02 01:29:35;;;;;;;9.20;7.33;;;;;;;5.48;100.00;95289.28;1053672;28;20024;-72
2021/05/02 01:30:08;;;;;;;8.57;7.20;;;;;;;5.51;100.00;95289.81;1049513;28;20016;-72
2021/05/02 01:30:38;;;;;;;9.40;7.60;;;;;;;5.50;100.00;95282.91;1045940;28;20470;-72
2021/05/02 01:31:09;;;;;;;10.37;7.97;;;;;;;5.49;100.00;95292.72;1045416;28;20040;-72
2021/05/02 01:31:40;;;;;;;9.98;7.78;;;;;;;5.50;100.00;95291.66;1045917;28;20021;-72
2021/05/02 01:32:10;;;;;;;9.93;8.13;;;;;;;5.45;100.00;95288.97;1045789;28;20033;-72
2021/05/02 01:32:41;;;;;;;10.73;8.50;;;;;;;5.47;100.00;95286.88;1047776;28;20025;-71
2021/05/02 01:33:11;;;;;;;11.80;8.60;;;;;;;5.48;100.00;95291.94;1051755;28;20362;-72
2021/05/02 01:33:42;;;;;;;10.97;8.43;;;;;;;5.50;100.00;95290.88;1051762;28;20021;-72
2021/05/02 01:34:12;;;;;;;12.87;9.20;;;;;;;5.49;100.00;95287.44;1051957;28;20012;-72
2021/05/02 01:34:43;;;;;;;11.00;8.20;;;;;;;5.46;100.00;95293.22;1056163;28;20468;-71
2021/05/02 01:35:14;;;;;;;9.18;8.05;;;;;;;5.43;100.00;95294.53;1055641;28;20016;-71
2021/05/02 01:35:45;;;;;;;11.30;8.87;;;;;;;5.45;100.00;95288.97;1053910;28;20024;-71
2021/05/02 01:36:15;;;;;;;9.83;7.80;;;;;;;5.47;100.00;95300.91;1054075;28;20479;-72
2021/05/02 01:36:45;;;;;;;10.10;8.17;;;;;;;5.47;100.00;95284.22;1053613;28;20020;-71
2021/05/02 01:37:16;;;;;;;10.10;8.53;;;;;;;5.46;100.00;95298.53;1047704;28;20021;-72
2021/05/02 01:37:47;;;;;;;11.20;8.00;;;;;;;5.46;100.00;95298.53;1049342;28;20024;-72
2021/05/02 01:38:18;;;;;;;9.95;8.05;;;;;;;5.48;100.00;95296.44;1049397;28;20020;-71
2021/05/02 01:38:49;;;;;;;12.25;8.40;;;;;;;5.48;100.00;95296.44;1045514;28;20039;-71
2021/05/02 01:39:20;;;;;;;10.73;9.02;;;;;;;5.47;100.00;95300.13;1045262;28;20021;-72
2021/05/02 01:39:50;;;;;;;11.13;8.97;;;;;;;5.47;100.00;95300.91;1037059;28;20078;-71
2021/05/02 01:40:21;;;;;;;11.33;8.83;;;;;;;5.48;100.00;95297.22;1037263;28;20378;-71
2021/05/02 01:40:53;;;;;;;10.13;7.90;;;;;;;5.47;100.00;95295.59;1041306;28;20021;-69
2021/05/02 01:41:27;;;;;;;11.23;8.80;;;;;;;5.48;100.00;95296.44;1049930;28;20094;-64
2021/05/02 01:41:57;;;;;;;11.95;8.75;;;;;;;5.51;100.00;95300.41;1053899;28;20107;-64
2021/05/02 01:42:27;;;;;;;9.60;7.80;;;;;;;5.47;100.00;95297.47;1053958;28;20024;-63
2021/05/02 01:42:58;;;;;;;10.17;7.77;;;;;;;5.46;100.00;95301.97;1053907;28;20469;-63
2021/05/02 01:43:28;;;;;;;10.73;8.90;;;;;;;5.48;100.00;95302.53;1054039;28;20024;-64
2021/05/02 01:43:59;;;;;;;11.73;9.10;;;;;;;5.51;100.00;95306.50;1053903;28;20020;-64
2021/05/02 01:44:30;;;;;;;11.50;8.87;;;;;;;5.55;100.00;95306.81;1053636;28;20437;-64
2021/05/02 01:45:00;;;;;;;11.93;9.45;;;;;;;5.55;100.00;95304.94;1053562;28;20505;-64
2021/05/02 01:45:31;;;;;;;11.30;8.83;;;;;;;5.55;100.00;95304.16;1053353;28;20020;-63
2021/05/02 01:46:03;;;;;;;9.47;7.40;;;;;;;5.51;100.00;95298.56;1053374;28;20067;-63
2021/05/02 01:46:37;;;;;;;10.30;8.00;;;;;;;5.53;100.00;95309.72;1049403;28;20131;-63
2021/05/02 01:47:09;;;;;;;11.18;8.68;;;;;;;5.51;100.00;95300.41;1049460;28;20028;-64
2021/05/02 01:47:46;;;;;;;10.80;8.68;;;;;;;5.52;100.00;95302.81;1048959;28;20056;-64
2021/05/02 01:48:17;;;;;;;10.48;8.55;;;;;;;5.53;100.00;95300.94;1050870;28;20250;-64
2021/05/02 01:48:47;;;;;;;11.32;8.63;;;;;;;5.49;100.00;95300.69;1053479;28;20372;-64
2021/05/02 01:49:18;;;;;;;12.13;9.03;;;;;;;5.49;100.00;95303.34;1049267;28;20013;-64
2021/05/02 01:49:56;;;;;;;10.50;8.67;;;;;;;5.48;100.00;95302.53;1049406;28;20020;-64
2021/05/02 01:50:26;;;;;;;11.70;8.38;;;;;;;5.48;100.00;95312.34;1049432;28;20428;-64
2021/05/02 01:51:01;;;;;;;10.30;8.50;;;;;;;5.51;100.00;95305.72;1047470;28;20122;-64
2021/05/02 01:51:32;;;;;;;14.70;9.27;;;;;;;5.51;100.00;95311.00;1049496;28;20097;-64
2021/05/02 01:52:02;;;;;;;11.27;9.07;;;;;;;5.53;100.00;95307.06;1045201;28;20469;-64
2021/05/02 01:52:44;;;;;;;11.77;9.40;;;;;;;5.53;100.00;95314.19;1041937;28;20018;-63
2021/05/02 01:53:14;;;;;;;12.95;8.63;;;;;;;5.51;100.00;95309.16;1047449;28;20075;-63
2021/05/02 01:53:45;;;;;;;10.97;8.90;;;;;;;5.52;100.00;95308.09;1046939;28;20504;-63
2021/05/02 01:54:15;;;;;;;12.83;9.30;;;;;;;5.50;100.00;95312.88;1050937;28;20032;-64
2021/05/02 01:54:46;;;;;;;15.17;8.70;;;;;;;5.46;100.00;95309.91;1053641;28;20024;-63
2021/05/02 01:55:16;;;;;;;11.13;8.83;;;;;;;5.45;100.00;95310.97;1049536;28;20013;-63
2021/05/02 01:55:47;;;;;;;11.63;8.87;;;;;;;5.45;100.00;95308.31;1053589;28;20400;-63
2021/05/02 01:56:18;;;;;;;10.65;8.52;;;;;;;5.46;100.00;95306.47;1053513;28;20016;-63
2021/05/02 01:56:48;;;;;;;10.97;8.33;;;;;;;5.44;100.00;95309.38;1049415;28;20031;-64
2021/05/02 01:57:25;;;;;;;10.97;8.87;;;;;;;5.47;100.00;95305.41;1049455;28;20458;-63
2021/05/02 01:57:55;;;;;;;14.25;10.00;;;;;;;5.45;100.00;95308.31;1049414;28;20099;-64
2021/05/02 01:58:26;;;;;;;11.80;8.83;;;;;;;5.46;100.00;95311.78;1047029;28;20021;-64
2021/05/02 01:58:57;;;;;;;11.57;9.23;;;;;;;5.45;100.00;95312.84;1053588;28;20385;-64
2021/05/02 01:59:27;;;;;;;11.35;9.25;;;;;;;5.51;100.00;95306.50;1049217;28;20017;-64
2021/05/02 02:00:08;;;;;;;11.97;9.50;;;;;;;5.43;100.00;95305.16;1045302;28;20029;-64
2021/05/02 02:00:49;;;;;;;13.40;8.25;;;;;;;5.40;100.00;95310.16;1049387;28;20055;-63
2021/05/02 02:01:19;;;;;;;11.30;9.02;;;;;;;5.39;100.00;95312.00;1052355;28;20381;-63
2021/05/02 02:01:50;;;;;;;11.80;8.87;;;;;;;5.42;100.00;95306.16;1053798;28;20023;-63
2021/05/02 02:02:20;;;;;;;13.07;9.33;;;;;;;5.40;100.00;95312.78;1054009;28;20016;-63
2021/05/02 02:02:51;;;;;;;12.43;9.87;;;;;;;5.40;100.00;95315.44;1053482;28;20079;-64
2021/05/02 02:03:21;;;;;;;11.57;9.37;;;;;;;5.38;100.00;95314.91;1053640;28;20020;-63
2021/05/02 02:03:52;;;;;;;11.73;9.17;;;;;;;5.36;100.00;95309.03;1053264;28;20058;-64
2021/05/02 02:04:22;;;;;;;12.13;9.53;;;;;;;5.37;100.00;95315.94;1052308;28;20035;-63
2021/05/02 02:04:55;;;;;;;13.83;10.50;;;;;;;5.36;100.00;95312.50;1052891;28;20027;-63
2021/05/02 02:05:26;;;;;;;14.15;11.05;;;;;;;5.38;100.00;95315.72;1052980;28;20405;-63
2021/05/02 02:05:56;;;;;;;13.63;10.30;;;;;;;5.39;100.00;95306.69;1043957;28;20021;-63
2021/05/02 02:06:27;;;;;;;13.23;10.07;;;;;;;5.38;100.00;95315.72;1041424;28;20018;-64
2021/05/02 02:06:57;;;;;;;14.47;10.57;;;;;;;5.36;100.00;95319.66;1044536;28;20025;-64
2021/05/02 02:07:28;;;;;;;13.90;11.30;;;;;;;5.38;100.00;95313.06;1044778;28;20021;-64
2021/05/02 02:07:59;;;;;;;13.63;10.63;;;;;;;5.38;100.00;95310.41;1048726;28;20035;-63
2021/05/02 02:08:29;;;;;;;15.55;10.75;;;;;;;5.40;100.00;95324.19;1048770;28;20032;-64
2021/05/02 02:09:07;;;;;;;13.50;10.70;;;;;;;5.36;100.00;95322.28;1040367;28;20025;-63
2021/05/02 02:09:37;;;;;;;13.70;10.27;;;;;;;5.36;100.00;95320.44;1042786;28;20072;-64
2021/05/02 02:10:10;;;;;;;14.77;11.23;;;;;;;5.35;100.00;95324.16;1044480;28;20095;-64
2021/05/02 02:10:40;;;;;;;14.90;11.07;;;;;;;5.36;100.00;95327.59;1047127;28;20389;-64
2021/05/02 02:11:10;;;;;;;14.70;10.67;;;;;;;5.37;100.00;95324.69;1052899;28;20043;-64
2021/05/02 02:11:41;;;;;;;14.90;11.17;;;;;;;5.34;100.00;95327.06;1048988;28;20024;-64
2021/05/02 02:12:11;;;;;;;14.67;11.50;;;;;;;5.37;100.00;95331.84;1048762;28;20020;-64
2021/05/02 02:12:42;;;;;;;15.23;11.57;;;;;;;5.35;100.00;95328.66;1048768;28;20024;-63
2021/05/02 02:13:13;;;;;;;16.17;12.43;;;;;;;5.33;100.00;95330.78;1044627;28;20016;-64
2021/05/02 02:13:47;;;;;;;16.35;12.15;;;;;;;5.33;100.00;95336.06;1048945;28;20023;-64
2021/05/02 02:14:19;;;;;;;15.80;12.05;;;;;;;5.34;100.00;95335.00;1052923;28;20106;-63
2021/05/02 02:14:50;;;;;;;19.35;13.13;;;;;;;5.30;100.00;95334.72;1052930;28;20020;-64
2021/05/02 02:15:21;;;;;;;15.10;11.95;;;;;;;5.32;100.00;95332.59;1053102;28;20465;-64
2021/05/02 02:15:51;;;;;;;15.10;11.83;;;;;;;5.33;100.00;95326.25;1053148;28;20016;-63
2021/05/02 02:16:22;;;;;;;14.43;11.47;;;;;;;5.32;100.00;95326.50;1053231;28;20024;-63
2021/05/02 02:16:53;;;;;;;18.58;12.35;;;;;;;5.30;100.00;95332.06;1052825;28;20028;-63
2021/05/02 02:17:23;;;;;;;15.77;12.27;;;;;;;5.30;100.00;95328.63;1053059;28;20032;-64
2021/05/02 02:17:54;;;;;;;16.73;13.03;;;;;;;5.33;100.00;95336.88;1049635;28;20020;-64
2021/05/02 02:18:25;;;;;;;14.27;11.95;;;;;;;5.31;100.00;95338.16;1049036;28;20036;-64
2021/05/02 02:18:55;;;;;;;15.50;11.70;;;;;;;5.30;100.00;95333.91;1052909;28;20027;-64
2021/05/02 02:19:26;;;;;;;17.33;12.20;;;;;;;5.31;100.00;95335.50;1048716;28;20075;-63
2021/05/02 02:19:56;;;;;;;14.30;11.30;;;;;;;5.30;100.00;95333.91;1052878;28;20047;-64
2021/05/02 02:20:28;;;;;;;17.17;11.67;;;;;;;5.32;100.00;95334.44;1052937;28;20424;-64
2021/05/02 02:20:59;;;;;;;15.07;11.68;;;;;;;5.27;100.00;95337.84;1052882;28;20095;-63
2021/05/02 02:21:29;;;;;;;15.10;11.87;;;;;;;5.28;100.00;95336.81;1052881;28;20679;-63
2021/05/02 02:22:00;;;;;;;12.70;10.70;;;;;;;5.21;100.00;95331.72;1040351;28;20017;-63
2021/05/02 02:22:35;;;;;;;12.87;10.53;;;;;;;5.20;100.00;95346.00;1040385;28;20022;-63
2021/05/02 02:23:32;;;;;;;13.35;11.30;;;;;;;5.21;100.00;95338.88;1037111;28;20025;-64
2021/05/02 02:24:03;;;;;;;15.68;11.35;;;;;;;5.16;100.00;95350.22;1045541;28;20044;-63
2021/05/02 02:24:47;;;;;;;13.85;11.02;;;;;;;5.19;100.00;95349.72;1045158;28;20021;-64
2021/05/02 02:25:17;;;;;;;14.15;11.10;;;;;;;5.18;100.00;95347.31;1044469;28;20034;-64
2021/05/02 02:25:48;;;;;;;15.43;11.70;;;;;;;5.17;100.00;95345.72;1040396;28;20017;-64
2021/05/02 02:26:24;;;;;;;14.30;11.50;;;;;;;5.18;100.00;95345.47;1044364;28;20018;-64
2021/05/02 02:26:56;;;;;;;16.17;11.93;;;;;;;5.19;100.00;95344.41;1049605;28;20025;-63
2021/05/02 02:27:28;;;;;;;16.40;12.02;;;;;;;5.21;100.00;95347.59;1049737;28;20035;-64
2021/05/02 02:28:02;;;;;;;15.95;11.27;;;;;;;5.19;100.00;95343.63;1052872;28;20020;-63
2021/05/02 02:28:32;;;;;;;16.67;12.85;;;;;;;5.19;100.00;95346.28;1048634;28;20079;-63
2021/05/02 02:29:03;;;;;;;16.90;13.50;;;;;;;5.18;100.00;95349.97;1041091;28;20021;-63